sensor_id;sensor_type;location;lat;lon;timestamp;temperature;humidity
74155;DHT22;62509;46.248;6.018;2024-03-22T00:03:29;13.10;79.40
74155;DHT22;62509;46.248;6.018;2024-03-22T00:08:33;13.00;79.50
74155;DHT22;62509;46.248;6.018;2024-03-22T00:13:35;13.00;79.40
74155;DHT22;62509;46.248;6.018;2024-03-22T00:18:38;13.00;79.40
74155;DHT22;62509;46.248;6.018;2024-03-22T00:23:41;13.00;79.50
74155;DHT22;62509;46.248;6.018;2024-03-22T00:28:44;13.00;79.40
74155;DHT22;62509;46.248;6.018;2024-03-22T00:33:46;13.00;79.20
74155;DHT22;62509;46.248;6.018;2024-03-22T00:38:50;13.00;79.10
74155;DHT22;62509;46.248;6.018;2024-03-22T00:43:52;12.80;79.00
74155;DHT22;62509;46.248;6.018;2024-03-22T00:48:54;12.70;79.20
74155;DHT22;62509;46.248;6.018;2024-03-22T00:53:58;12.80;79.50
74155;DHT22;62509;46.248;6.018;2024-03-22T00:59:00;12.80;79.40
74155;DHT22;62509;46.248;6.018;2024-03-22T01:04:02;12.80;79.50
74155;DHT22;62509;46.248;6.018;2024-03-22T01:09:06;12.80;79.30
74155;DHT22;62509;46.248;6.018;2024-03-22T01:14:09;12.80;79.20
74155;DHT22;62509;46.248;6.018;2024-03-22T01:19:11;12.80;79.30
74155;DHT22;62509;46.248;6.018;2024-03-22T01:24:14;12.70;79.30
74155;DHT22;62509;46.248;6.018;2024-03-22T01:29:17;12.60;79.40
74155;DHT22;62509;46.248;6.018;2024-03-22T01:34:19;12.50;79.40
74155;DHT22;62509;46.248;6.018;2024-03-22T01:39:22;12.40;79.60
74155;DHT22;62509;46.248;6.018;2024-03-22T01:44:27;12.30;79.60
74155;DHT22;62509;46.248;6.018;2024-03-22T01:49:29;12.20;79.60
74155;DHT22;62509;46.248;6.018;2024-03-22T01:54:33;12.20;79.60
74155;DHT22;62509;46.248;6.018;2024-03-22T01:59:35;12.10;79.40
74155;DHT22;62509;46.248;6.018;2024-03-22T02:04:38;12.10;79.60
74155;DHT22;62509;46.248;6.018;2024-03-22T02:09:42;12.10;79.60
74155;DHT22;62509;46.248;6.018;2024-03-22T02:14:44;12.10;79.50
74155;DHT22;62509;46.248;6.018;2024-03-22T02:19:46;12.10;79.40
74155;DHT22;62509;46.248;6.018;2024-03-22T02:24:50;12.10;79.20
74155;DHT22;62509;46.248;6.018;2024-03-22T02:29:52;12.00;79.30
74155;DHT22;62509;46.248;6.018;2024-03-22T02:34:54;11.90;79.30
74155;DHT22;62509;46.248;6.018;2024-03-22T02:39:58;11.80;79.30
74155;DHT22;62509;46.248;6.018;2024-03-22T02:45:00;11.70;79.50
74155;DHT22;62509;46.248;6.018;2024-03-22T02:50:02;11.60;79.60
74155;DHT22;62509;46.248;6.018;2024-03-22T02:55:07;11.60;79.70
74155;DHT22;62509;46.248;6.018;2024-03-22T03:00:10;11.60;80.10
74155;DHT22;62509;46.248;6.018;2024-03-22T03:05:13;11.70;79.70
74155;DHT22;62509;46.248;6.018;2024-03-22T03:10:17;11.80;79.60
74155;DHT22;62509;46.248;6.018;2024-03-22T03:15:19;11.90;79.50
74155;DHT22;62509;46.248;6.018;2024-03-22T03:20:21;11.90;79.20
74155;DHT22;62509;46.248;6.018;2024-03-22T03:25:24;12.00;79.40
74155;DHT22;62509;46.248;6.018;2024-03-22T03:30:27;12.00;79.30
74155;DHT22;62509;46.248;6.018;2024-03-22T03:35:29;11.90;79.30
74155;DHT22;62509;46.248;6.018;2024-03-22T03:40:32;11.90;79.70
74155;DHT22;62509;46.248;6.018;2024-03-22T03:45:36;11.80;79.20
74155;DHT22;62509;46.248;6.018;2024-03-22T03:50:38;11.90;79.30
74155;DHT22;62509;46.248;6.018;2024-03-22T03:55:41;12.00;79.20
74155;DHT22;62509;46.248;6.018;2024-03-22T04:00:44;12.10;79.20
74155;DHT22;62509;46.248;6.018;2024-03-22T04:05:46;12.10;79.00
74155;DHT22;62509;46.248;6.018;2024-03-22T04:10:52;12.10;79.20
74155;DHT22;62509;46.248;6.018;2024-03-22T04:15:58;12.20;79.20
74155;DHT22;62509;46.248;6.018;2024-03-22T04:21:01;12.20;79.10
74155;DHT22;62509;46.248;6.018;2024-03-22T04:26:04;12.20;79.10
74155;DHT22;62509;46.248;6.018;2024-03-22T04:31:07;12.30;79.00
74155;DHT22;62509;46.248;6.018;2024-03-22T04:36:10;12.30;79.00
74155;DHT22;62509;46.248;6.018;2024-03-22T04:41:13;12.30;79.00
74155;DHT22;62509;46.248;6.018;2024-03-22T04:46:15;12.20;79.00
74155;DHT22;62509;46.248;6.018;2024-03-22T04:51:18;12.30;79.00
74155;DHT22;62509;46.248;6.018;2024-03-22T04:56:21;12.30;78.90
74155;DHT22;62509;46.248;6.018;2024-03-22T05:01:23;12.30;78.90
74155;DHT22;62509;46.248;6.018;2024-03-22T05:06:26;12.30;78.90
74155;DHT22;62509;46.248;6.018;2024-03-22T05:11:29;12.30;79.10
74155;DHT22;62509;46.248;6.018;2024-03-22T05:16:32;12.30;79.00
74155;DHT22;62509;46.248;6.018;2024-03-22T05:21:36;12.20;79.10
74155;DHT22;62509;46.248;6.018;2024-03-22T05:26:39;12.10;79.20
74155;DHT22;62509;46.248;6.018;2024-03-22T05:31:45;12.10;79.20
74155;DHT22;62509;46.248;6.018;2024-03-22T05:36:49;12.10;79.20
74155;DHT22;62509;46.248;6.018;2024-03-22T05:41:53;12.10;79.20
74155;DHT22;62509;46.248;6.018;2024-03-22T05:46:55;12.10;79.20
74155;DHT22;62509;46.248;6.018;2024-03-22T05:51:58;12.10;79.10
74155;DHT22;62509;46.248;6.018;2024-03-22T05:57:01;12.10;79.20
74155;DHT22;62509;46.248;6.018;2024-03-22T06:02:05;12.10;79.00
74155;DHT22;62509;46.248;6.018;2024-03-22T06:07:07;12.10;79.00
74155;DHT22;62509;46.248;6.018;2024-03-22T06:12:12;12.10;79.10
74155;DHT22;62509;46.248;6.018;2024-03-22T06:17:14;12.20;79.00
74155;DHT22;62509;46.248;6.018;2024-03-22T06:22:17;12.30;79.00
74155;DHT22;62509;46.248;6.018;2024-03-22T06:27:20;12.30;78.90
74155;DHT22;62509;46.248;6.018;2024-03-22T06:32:23;12.30;78.90
74155;DHT22;62509;46.248;6.018;2024-03-22T06:37:25;12.40;78.90
74155;DHT22;62509;46.248;6.018;2024-03-22T06:42:28;12.40;79.00
74155;DHT22;62509;46.248;6.018;2024-03-22T06:47:30;12.50;79.10
74155;DHT22;62509;46.248;6.018;2024-03-22T06:52:33;12.60;79.10
74155;DHT22;62509;46.248;6.018;2024-03-22T06:57:36;12.70;79.10
74155;DHT22;62509;46.248;6.018;2024-03-22T07:02:38;12.80;79.10
74155;DHT22;62509;46.248;6.018;2024-03-22T07:07:41;12.90;79.00
74155;DHT22;62509;46.248;6.018;2024-03-22T07:12:44;13.00;78.80
74155;DHT22;62509;46.248;6.018;2024-03-22T07:17:46;13.10;78.80
74155;DHT22;62509;46.248;6.018;2024-03-22T07:22:49;13.10;78.50
74155;DHT22;62509;46.248;6.018;2024-03-22T07:27:52;13.10;78.50
74155;DHT22;62509;46.248;6.018;2024-03-22T07:32:54;13.20;78.70
74155;DHT22;62509;46.248;6.018;2024-03-22T07:37:57;13.30;78.70
74155;DHT22;62509;46.248;6.018;2024-03-22T07:43:00;13.40;78.60
74155;DHT22;62509;46.248;6.018;2024-03-22T07:48:06;13.50;78.50
74155;DHT22;62509;46.248;6.018;2024-03-22T07:53:09;13.60;78.50
74155;DHT22;62509;46.248;6.018;2024-03-22T07:58:12;13.70;78.50
74155;DHT22;62509;46.248;6.018;2024-03-22T08:03:15;13.90;78.60
74155;DHT22;62509;46.248;6.018;2024-03-22T08:08:17;14.00;78.60
74155;DHT22;62509;46.248;6.018;2024-03-22T08:13:21;14.10;78.40
74155;DHT22;62509;46.248;6.018;2024-03-22T08:18:23;14.30;78.80
74155;DHT22;62509;46.248;6.018;2024-03-22T08:23:25;14.40;78.20
74155;DHT22;62509;46.248;6.018;2024-03-22T08:28:29;14.50;78.10
74155;DHT22;62509;46.248;6.018;2024-03-22T08:33:32;14.60;78.10
74155;DHT22;62509;46.248;6.018;2024-03-22T08:38:34;14.70;78.20
74155;DHT22;62509;46.248;6.018;2024-03-22T08:43:37;14.90;78.20
74155;DHT22;62509;46.248;6.018;2024-03-22T08:48:40;15.00;78.00
74155;DHT22;62509;46.248;6.018;2024-03-22T08:53:42;15.10;77.90
74155;DHT22;62509;46.248;6.018;2024-03-22T08:58:45;15.20;77.90
74155;DHT22;62509;46.248;6.018;2024-03-22T09:03:47;15.30;77.90
74155;DHT22;62509;46.248;6.018;2024-03-22T09:08:51;15.40;77.80
74155;DHT22;62509;46.248;6.018;2024-03-22T09:13:57;15.50;77.70
74155;DHT22;62509;46.248;6.018;2024-03-22T09:18:59;15.60;77.60
74155;DHT22;62509;46.248;6.018;2024-03-22T09:24:01;15.80;77.60
74155;DHT22;62509;46.248;6.018;2024-03-22T09:29:05;15.90;77.50
74155;DHT22;62509;46.248;6.018;2024-03-22T09:34:08;16.00;77.40
74155;DHT22;62509;46.248;6.018;2024-03-22T09:39:10;16.10;77.40
74155;DHT22;62509;46.248;6.018;2024-03-22T09:44:14;16.20;77.20
74155;DHT22;62509;46.248;6.018;2024-03-22T09:49:20;16.30;77.70
74155;DHT22;62509;46.248;6.018;2024-03-22T09:54:24;16.40;77.10
74155;DHT22;62509;46.248;6.018;2024-03-22T09:59:28;16.50;77.00
74155;DHT22;62509;46.248;6.018;2024-03-22T10:04:30;16.60;77.00
74155;DHT22;62509;46.248;6.018;2024-03-22T10:09:32;16.60;77.00
74155;DHT22;62509;46.248;6.018;2024-03-22T10:14:36;16.70;76.90
74155;DHT22;62509;46.248;6.018;2024-03-22T10:19:40;16.80;76.80
74155;DHT22;62509;46.248;6.018;2024-03-22T10:24:42;17.00;76.70
74155;DHT22;62509;46.248;6.018;2024-03-22T10:29:46;17.00;76.70
74155;DHT22;62509;46.248;6.018;2024-03-22T10:34:49;17.10;76.50
74155;DHT22;62509;46.248;6.018;2024-03-22T10:39:52;17.20;76.50
74155;DHT22;62509;46.248;6.018;2024-03-22T10:44:56;17.30;76.40
74155;DHT22;62509;46.248;6.018;2024-03-22T10:50:01;17.40;76.30
74155;DHT22;62509;46.248;6.018;2024-03-22T10:55:07;17.60;76.30
74155;DHT22;62509;46.248;6.018;2024-03-22T11:00:14;17.60;76.10
74155;DHT22;62509;46.248;6.018;2024-03-22T11:05:17;17.70;76.10
74155;DHT22;62509;46.248;6.018;2024-03-22T11:10:19;17.80;76.00
74155;DHT22;62509;46.248;6.018;2024-03-22T11:15:23;17.90;75.90
74155;DHT22;62509;46.248;6.018;2024-03-22T11:20:25;18.00;75.80
74155;DHT22;62509;46.248;6.018;2024-03-22T11:25:27;18.10;75.70
74155;DHT22;62509;46.248;6.018;2024-03-22T11:30:32;18.10;75.70
74155;DHT22;62509;46.248;6.018;2024-03-22T11:35:35;18.20;75.60
74155;DHT22;62509;46.248;6.018;2024-03-22T11:40:37;18.30;75.50
74155;DHT22;62509;46.248;6.018;2024-03-22T11:45:41;18.40;75.40
74155;DHT22;62509;46.248;6.018;2024-03-22T11:50:43;18.50;75.30
74155;DHT22;62509;46.248;6.018;2024-03-22T11:55:49;18.60;75.20
74155;DHT22;62509;46.248;6.018;2024-03-22T12:00:52;18.70;75.10
74155;DHT22;62509;46.248;6.018;2024-03-22T12:05:54;18.80;74.90
74155;DHT22;62509;46.248;6.018;2024-03-22T12:10:56;18.90;74.90
74155;DHT22;62509;46.248;6.018;2024-03-22T12:16:00;18.90;74.70
74155;DHT22;62509;46.248;6.018;2024-03-22T12:21:03;19.00;74.70
74155;DHT22;62509;46.248;6.018;2024-03-22T12:26:05;19.10;74.60
74155;DHT22;62509;46.248;6.018;2024-03-22T12:31:09;19.10;74.40
74155;DHT22;62509;46.248;6.018;2024-03-22T12:36:12;19.20;74.30
74155;DHT22;62509;46.248;6.018;2024-03-22T12:41:14;19.20;74.20
74155;DHT22;62509;46.248;6.018;2024-03-22T12:46:18;19.30;74.30
74155;DHT22;62509;46.248;6.018;2024-03-22T12:51:20;19.40;74.10
74155;DHT22;62509;46.248;6.018;2024-03-22T12:56:22;19.50;74.10
74155;DHT22;62509;46.248;6.018;2024-03-22T13:01:25;19.50;73.90
74155;DHT22;62509;46.248;6.018;2024-03-22T13:06:28;19.60;73.90
74155;DHT22;62509;46.248;6.018;2024-03-22T13:11:30;19.70;73.70
74155;DHT22;62509;46.248;6.018;2024-03-22T13:16:34;19.70;73.70
74155;DHT22;62509;46.248;6.018;2024-03-22T13:21:36;19.80;73.60
74155;DHT22;62509;46.248;6.018;2024-03-22T13:26:38;19.80;73.50
74155;DHT22;62509;46.248;6.018;2024-03-22T13:31:42;19.90;73.40
74155;DHT22;62509;46.248;6.018;2024-03-22T13:36:45;19.90;73.30
74155;DHT22;62509;46.248;6.018;2024-03-22T13:41:47;20.00;73.20
74155;DHT22;62509;46.248;6.018;2024-03-22T13:46:51;20.00;73.00
74155;DHT22;62509;46.248;6.018;2024-03-22T13:51:53;20.10;72.90
74155;DHT22;62509;46.248;6.018;2024-03-22T13:56:55;20.10;72.80
74155;DHT22;62509;46.248;6.018;2024-03-22T14:01:59;20.20;72.80
74155;DHT22;62509;46.248;6.018;2024-03-22T14:07:02;20.20;72.60
74155;DHT22;62509;46.248;6.018;2024-03-22T14:12:05;20.30;72.60
74155;DHT22;62509;46.248;6.018;2024-03-22T14:17:09;20.30;72.40
74155;DHT22;62509;46.248;6.018;2024-03-22T14:22:12;20.40;72.40
74155;DHT22;62509;46.248;6.018;2024-03-22T14:27:14;20.40;72.20
74155;DHT22;62509;46.248;6.018;2024-03-22T14:32:18;20.40;72.00
74155;DHT22;62509;46.248;6.018;2024-03-22T14:37:20;20.50;72.00
74155;DHT22;62509;46.248;6.018;2024-03-22T14:42:22;20.60;71.90
74155;DHT22;62509;46.248;6.018;2024-03-22T14:47:26;20.60;71.70
74155;DHT22;62509;46.248;6.018;2024-03-22T14:52:28;20.70;71.70
74155;DHT22;62509;46.248;6.018;2024-03-22T14:57:31;20.70;71.60
74155;DHT22;62509;46.248;6.018;2024-03-22T15:02:34;20.80;71.50
74155;DHT22;62509;46.248;6.018;2024-03-22T15:07:36;20.80;71.40
74155;DHT22;62509;46.248;6.018;2024-03-22T15:12:38;20.80;71.20
74155;DHT22;62509;46.248;6.018;2024-03-22T15:17:42;20.90;71.10
74155;DHT22;62509;46.248;6.018;2024-03-22T15:22:44;21.00;71.00
74155;DHT22;62509;46.248;6.018;2024-03-22T15:27:47;21.00;70.90
74155;DHT22;62509;46.248;6.018;2024-03-22T15:32:50;21.10;70.70
74155;DHT22;62509;46.248;6.018;2024-03-22T15:37:56;21.10;70.60
74155;DHT22;62509;46.248;6.018;2024-03-22T15:42:58;21.20;70.50
74155;DHT22;62509;46.248;6.018;2024-03-22T15:48:02;21.20;70.40
74155;DHT22;62509;46.248;6.018;2024-03-22T15:53:04;21.20;70.30
74155;DHT22;62509;46.248;6.018;2024-03-22T15:58:07;21.30;70.30
74155;DHT22;62509;46.248;6.018;2024-03-22T16:03:11;21.30;70.30
74155;DHT22;62509;46.248;6.018;2024-03-22T16:08:14;21.30;70.30
74155;DHT22;62509;46.248;6.018;2024-03-22T16:13:16;21.30;70.20
74155;DHT22;62509;46.248;6.018;2024-03-22T16:18:20;21.30;70.10
74155;DHT22;62509;46.248;6.018;2024-03-22T16:23:22;21.30;70.00
74155;DHT22;62509;46.248;6.018;2024-03-22T16:28:25;21.30;69.90
74155;DHT22;62509;46.248;6.018;2024-03-22T16:33:30;21.30;69.90
74155;DHT22;62509;46.248;6.018;2024-03-22T16:38:32;21.30;69.90
74155;DHT22;62509;46.248;6.018;2024-03-22T16:43:35;21.20;69.80
74155;DHT22;62509;46.248;6.018;2024-03-22T16:48:40;21.20;69.70
74155;DHT22;62509;46.248;6.018;2024-03-22T16:53:42;21.10;69.70
74155;DHT22;62509;46.248;6.018;2024-03-22T16:58:44;21.10;69.70
74155;DHT22;62509;46.248;6.018;2024-03-22T17:03:48;21.00;69.70
74155;DHT22;62509;46.248;6.018;2024-03-22T17:08:50;21.00;69.70
74155;DHT22;62509;46.248;6.018;2024-03-22T17:13:52;20.90;69.70
74155;DHT22;62509;46.248;6.018;2024-03-22T17:18:55;20.80;69.70
74155;DHT22;62509;46.248;6.018;2024-03-22T17:23:58;20.80;69.80
74155;DHT22;62509;46.248;6.018;2024-03-22T17:29:00;20.60;69.70
74155;DHT22;62509;46.248;6.018;2024-03-22T17:34:03;20.60;69.80
74155;DHT22;62509;46.248;6.018;2024-03-22T17:39:06;20.50;69.70
74155;DHT22;62509;46.248;6.018;2024-03-22T17:44:08;20.40;69.80
74155;DHT22;62509;46.248;6.018;2024-03-22T17:49:12;20.30;69.90
74155;DHT22;62509;46.248;6.018;2024-03-22T17:54:15;20.20;69.90
74155;DHT22;62509;46.248;6.018;2024-03-22T17:59:17;20.10;69.90
74155;DHT22;62509;46.248;6.018;2024-03-22T18:04:20;20.00;70.00
74155;DHT22;62509;46.248;6.018;2024-03-22T18:09:23;19.80;70.00
74155;DHT22;62509;46.248;6.018;2024-03-22T18:14:25;19.70;70.10
74155;DHT22;62509;46.248;6.018;2024-03-22T18:19:29;19.60;70.10
74155;DHT22;62509;46.248;6.018;2024-03-22T18:24:31;19.50;70.10
74155;DHT22;62509;46.248;6.018;2024-03-22T18:29:33;19.40;70.10
74155;DHT22;62509;46.248;6.018;2024-03-22T18:34:37;19.30;70.00
74155;DHT22;62509;46.248;6.018;2024-03-22T18:39:39;19.10;70.00
74155;DHT22;62509;46.248;6.018;2024-03-22T18:44:42;19.00;70.00
74155;DHT22;62509;46.248;6.018;2024-03-22T18:49:46;18.80;70.10
74155;DHT22;62509;46.248;6.018;2024-03-22T18:54:52;18.70;70.20
74155;DHT22;62509;46.248;6.018;2024-03-22T18:59:59;18.60;70.20
74155;DHT22;62509;46.248;6.018;2024-03-22T19:05:02;18.50;70.30
74155;DHT22;62509;46.248;6.018;2024-03-22T19:10:05;18.30;70.30
74155;DHT22;62509;46.248;6.018;2024-03-22T19:15:08;18.20;70.30
74155;DHT22;62509;46.248;6.018;2024-03-22T19:20:12;18.10;70.50
74155;DHT22;62509;46.248;6.018;2024-03-22T19:25:14;17.90;70.50
74155;DHT22;62509;46.248;6.018;2024-03-22T19:30:17;17.90;70.50
74155;DHT22;62509;46.248;6.018;2024-03-22T19:35:23;17.80;70.30
74155;DHT22;62509;46.248;6.018;2024-03-22T19:40:25;17.70;70.30
74155;DHT22;62509;46.248;6.018;2024-03-22T19:45:27;17.60;70.30
74155;DHT22;62509;46.248;6.018;2024-03-22T19:50:31;17.50;70.30
74155;DHT22;62509;46.248;6.018;2024-03-22T19:55:33;17.40;70.30
74155;DHT22;62509;46.248;6.018;2024-03-22T20:00:35;17.30;70.30
74155;DHT22;62509;46.248;6.018;2024-03-22T20:05:39;17.20;70.90
74155;DHT22;62509;46.248;6.018;2024-03-22T20:10:41;17.00;70.50
74155;DHT22;62509;46.248;6.018;2024-03-22T20:15:43;17.00;70.50
74155;DHT22;62509;46.248;6.018;2024-03-22T20:20:47;16.80;70.40
74155;DHT22;62509;46.248;6.018;2024-03-22T20:25:49;16.70;70.50
74155;DHT22;62509;46.248;6.018;2024-03-22T20:30:52;16.60;70.50
74155;DHT22;62509;46.248;6.018;2024-03-22T20:35:55;16.50;70.50
